JAL8118 RJFM-RJBB
Flight info
| Callsign | JAL8118 |
|---|---|
| Flight time | 1h 3m |
| Altitude | 37000 |
| Route | MADOG Y53 NIXOV |
| Aircraft | A359/H-SDE2E3GHIJ3J4J5LM1ORWXY/LB1D1 |
Departure
| Time | 2026-05-01 12:43 |
|---|---|
| Airport | Miyazaki Airport (RJFM) |
Arrival
| Time | 2026-05-01 13:47 |
|---|---|
| Airport | Kansai International Airport (RJBB) |
| Time | Latitude | Longitude | Altitude | Speed | Heading |
|---|---|---|---|---|---|
| 2026-05-01 12:04 | 31.87373 | 131.44284 | 41 ft | 0 kts | 175° |
| 2026-05-01 12:29 | 31.87380 | 131.44283 | 41 ft | 0 kts | 175° |
| 2026-05-01 12:29 | 31.87386 | 131.44283 | 40 ft | 3 kts | 175° |
| 2026-05-01 12:29 | 31.87428 | 131.44278 | 40 ft | 3 kts | 174° |
| 2026-05-01 12:30 | 31.87464 | 131.44263 | 37 ft | 3 kts | 129° |
| 2026-05-01 12:30 | 31.87474 | 131.44243 | 38 ft | 3 kts | 106° |
| 2026-05-01 12:30 | 31.87477 | 131.44219 | 37 ft | 2 kts | 88° |
| 2026-05-01 12:34 | 31.87479 | 131.44245 | 36 ft | 11 kts | 85° |
| 2026-05-01 12:34 | 31.87494 | 131.44355 | 40 ft | 16 kts | 78° |
| 2026-05-01 12:34 | 31.87517 | 131.44494 | 41 ft | 19 kts | 82° |
| 2026-05-01 12:34 | 31.87529 | 131.44662 | 41 ft | 22 kts | 86° |
| 2026-05-01 12:35 | 31.87542 | 131.44855 | 41 ft | 25 kts | 85° |
| 2026-05-01 12:35 | 31.87560 | 131.45073 | 41 ft | 28 kts | 85° |
| 2026-05-01 12:35 | 31.87578 | 131.45315 | 41 ft | 31 kts | 85° |
| 2026-05-01 12:35 | 31.87597 | 131.45575 | 41 ft | 34 kts | 85° |
| 2026-05-01 12:36 | 31.87614 | 131.45844 | 41 ft | 0 kts | 88° |
| 2026-05-01 12:36 | 31.87617 | 131.45898 | 41 ft | 10 kts | 85° |
| 2026-05-01 12:36 | 31.87624 | 131.45996 | 41 ft | 14 kts | 85° |
| 2026-05-01 12:37 | 31.87645 | 131.46116 | 41 ft | 16 kts | 55° |
| 2026-05-01 12:37 | 31.87689 | 131.46149 | 41 ft | 0 kts | 14° |
| 2026-05-01 12:40 | 31.87690 | 131.46149 | 41 ft | 1 kts | 14° |
| 2026-05-01 12:41 | 31.87748 | 131.46152 | 41 ft | 11 kts | 354° |
| 2026-05-01 12:41 | 31.87797 | 131.46098 | 41 ft | 10 kts | 281° |
| 2026-05-01 12:41 | 31.87797 | 131.46045 | 40 ft | 0 kts | 266° |
| 2026-05-01 12:42 | 31.87791 | 131.45941 | 39 ft | 44 kts | 266° |
| 2026-05-01 12:42 | 31.87744 | 131.45243 | 37 ft | 125 kts | 265° |
| 2026-05-01 12:43 | 31.87677 | 131.44022 | 455 ft | 159 kts | 268° |
| 2026-05-01 12:43 | 31.87593 | 131.42689 | 1400 ft | 169 kts | 266° |
| 2026-05-01 12:43 | 31.87481 | 131.41211 | 2127 ft | 194 kts | 268° |
| 2026-05-01 12:43 | 31.87358 | 131.39531 | 2879 ft | 216 kts | 270° |
| 2026-05-01 12:44 | 31.87270 | 131.37738 | 3600 ft | 227 kts | 277° |
| 2026-05-01 12:44 | 31.87735 | 131.35991 | 4322 ft | 228 kts | 307° |
| 2026-05-01 12:44 | 31.90617 | 131.34492 | 6057 ft | 243 kts | 352° |
| 2026-05-01 12:45 | 31.94047 | 131.34683 | 7869 ft | 262 kts | 14° |
| 2026-05-01 12:45 | 31.95666 | 131.35769 | 8787 ft | 274 kts | 31° |
| 2026-05-01 12:45 | 31.97121 | 131.37292 | 9645 ft | 289 kts | 44° |
| 2026-05-01 12:46 | 31.98162 | 131.39407 | 10374 ft | 312 kts | 67° |
| 2026-05-01 12:46 | 31.98419 | 131.42026 | 10744 ft | 343 kts | 89° |
| 2026-05-01 12:46 | 31.98235 | 131.44935 | 11064 ft | 368 kts | 93° |
| 2026-05-01 12:46 | 31.97981 | 131.48012 | 11534 ft | 385 kts | 93° |
| 2026-05-01 12:47 | 31.97727 | 131.51191 | 12217 ft | 394 kts | 93° |
| 2026-05-01 12:47 | 31.97479 | 131.54411 | 12924 ft | 401 kts | 93° |
| 2026-05-01 12:47 | 31.97232 | 131.57718 | 13591 ft | 410 kts | 93° |
| 2026-05-01 12:47 | 31.96982 | 131.61104 | 14169 ft | 419 kts | 93° |
| 2026-05-01 12:48 | 31.96733 | 131.64496 | 14807 ft | 424 kts | 93° |
| 2026-05-01 12:48 | 31.96479 | 131.67960 | 15443 ft | 430 kts | 93° |
| 2026-05-01 12:48 | 31.96221 | 131.71486 | 16079 ft | 435 kts | 92° |
| 2026-05-01 12:48 | 31.95958 | 131.75060 | 16706 ft | 441 kts | 92° |
| 2026-05-01 12:49 | 31.95691 | 131.78681 | 17330 ft | 447 kts | 92° |
| 2026-05-01 12:49 | 31.95419 | 131.82362 | 17900 ft | 455 kts | 92° |
| 2026-05-01 12:49 | 31.95143 | 131.86090 | 18479 ft | 460 kts | 92° |
| 2026-05-01 12:49 | 31.94862 | 131.89858 | 19035 ft | 464 kts | 92° |
| 2026-05-01 12:50 | 31.94576 | 131.93667 | 19598 ft | 469 kts | 92° |
| 2026-05-01 12:50 | 31.94288 | 131.97513 | 20159 ft | 474 kts | 92° |
| 2026-05-01 12:50 | 31.93994 | 132.01405 | 20710 ft | 480 kts | 92° |
| 2026-05-01 12:50 | 31.93700 | 132.05290 | 21251 ft | 485 kts | 92° |
| 2026-05-01 12:51 | 31.93398 | 132.09260 | 21797 ft | 490 kts | 92° |
| 2026-05-01 12:51 | 31.93176 | 132.13272 | 22375 ft | 492 kts | 86° |
| 2026-05-01 12:51 | 31.94666 | 132.20960 | 23467 ft | 477 kts | 55° |
| 2026-05-01 12:52 | 31.96508 | 132.24124 | 23905 ft | 462 kts | 37° |
| 2026-05-01 12:52 | 32.01301 | 132.29041 | 24949 ft | 458 kts | 28° |
| 2026-05-01 12:52 | 32.03795 | 132.31396 | 25475 ft | 462 kts | 28° |
| 2026-05-01 12:53 | 32.08798 | 132.36105 | 26703 ft | 465 kts | 28° |
| 2026-05-01 12:53 | 32.11331 | 132.38485 | 27177 ft | 470 kts | 28° |
| 2026-05-01 12:53 | 32.13901 | 132.40905 | 27660 ft | 475 kts | 28° |
| 2026-05-01 12:54 | 32.16495 | 132.43353 | 28157 ft | 480 kts | 28° |
| 2026-05-01 12:54 | 32.21746 | 132.48308 | 29239 ft | 486 kts | 28° |
| 2026-05-01 12:54 | 32.24395 | 132.50814 | 29721 ft | 490 kts | 28° |
| 2026-05-01 12:55 | 32.29757 | 132.55888 | 30583 ft | 496 kts | 28° |
| 2026-05-01 12:55 | 32.32454 | 132.58448 | 31054 ft | 498 kts | 28° |
| 2026-05-01 12:55 | 32.35120 | 132.60983 | 31555 ft | 498 kts | 27° |
| 2026-05-01 12:56 | 32.37823 | 132.63554 | 32022 ft | 499 kts | 27° |
| 2026-05-01 12:56 | 32.40535 | 132.66134 | 32402 ft | 502 kts | 27° |
| 2026-05-01 12:56 | 32.43265 | 132.68729 | 32766 ft | 504 kts | 27° |
| 2026-05-01 12:56 | 32.45998 | 132.71329 | 33141 ft | 505 kts | 27° |
| 2026-05-01 12:57 | 32.48733 | 132.73938 | 33706 ft | 503 kts | 26° |
| 2026-05-01 12:57 | 32.54105 | 132.79087 | 34898 ft | 492 kts | 26° |
| 2026-05-01 12:57 | 32.56721 | 132.81593 | 35380 ft | 489 kts | 25° |
| 2026-05-01 12:58 | 32.59359 | 132.84116 | 35849 ft | 486 kts | 25° |
| 2026-05-01 12:58 | 32.61983 | 132.86625 | 36284 ft | 483 kts | 25° |
| 2026-05-01 12:58 | 32.64593 | 132.89120 | 36700 ft | 481 kts | 25° |
| 2026-05-01 12:59 | 32.69783 | 132.94082 | 36907 ft | 480 kts | 25° |
| 2026-05-01 12:59 | 32.72357 | 132.96557 | 36906 ft | 469 kts | 25° |
| 2026-05-01 12:59 | 32.76856 | 133.02014 | 36931 ft | 464 kts | 38° |
| 2026-05-01 13:00 | 32.80595 | 133.08045 | 36910 ft | 445 kts | 39° |
| 2026-05-01 13:00 | 32.82385 | 133.11043 | 36903 ft | 444 kts | 39° |
| 2026-05-01 13:01 | 32.87732 | 133.20058 | 36923 ft | 445 kts | 39° |
| 2026-05-01 13:02 | 32.92762 | 133.28551 | 36894 ft | 449 kts | 39° |
| 2026-05-01 13:07 | 33.31057 | 133.93943 | 27158 ft | 460 kts | 44° |
| 2026-05-01 13:07 | 33.32840 | 133.97053 | 26446 ft | 447 kts | 44° |
| 2026-05-01 13:07 | 33.34586 | 134.00071 | 25696 ft | 436 kts | 44° |
| 2026-05-01 13:08 | 33.36294 | 134.03010 | 24973 ft | 426 kts | 44° |
| 2026-05-01 13:08 | 33.37971 | 134.05886 | 24268 ft | 417 kts | 45° |
| 2026-05-01 13:08 | 33.39613 | 134.08703 | 23567 ft | 408 kts | 45° |
| 2026-05-01 13:08 | 33.41204 | 134.11421 | 22802 ft | 400 kts | 46° |
| 2026-05-01 13:09 | 33.42807 | 134.14171 | 21953 ft | 395 kts | 46° |
| 2026-05-01 13:09 | 33.44347 | 134.16842 | 21056 ft | 394 kts | 48° |
| 2026-05-01 13:09 | 33.45897 | 134.19557 | 20281 ft | 385 kts | 47° |
| 2026-05-01 13:09 | 33.47384 | 134.22138 | 19546 ft | 378 kts | 46° |
| 2026-05-01 13:10 | 33.48867 | 134.24698 | 18781 ft | 374 kts | 48° |
| 2026-05-01 13:10 | 33.50326 | 134.27251 | 18035 ft | 368 kts | 47° |
| 2026-05-01 13:10 | 33.51773 | 134.29753 | 17216 ft | 362 kts | 47° |
| 2026-05-01 13:10 | 33.53197 | 134.32216 | 16437 ft | 357 kts | 47° |
| 2026-05-01 13:11 | 33.54598 | 134.34641 | 15690 ft | 351 kts | 49° |
| 2026-05-01 13:11 | 33.55974 | 134.37029 | 14937 ft | 345 kts | 49° |
| 2026-05-01 13:11 | 33.57324 | 134.39375 | 14209 ft | 339 kts | 50° |
| 2026-05-01 13:11 | 33.58652 | 134.41687 | 13463 ft | 334 kts | 50° |
| 2026-05-01 13:12 | 33.59956 | 134.43964 | 12668 ft | 328 kts | 49° |
| 2026-05-01 13:12 | 33.61295 | 134.46087 | 11896 ft | 317 kts | 40° |
| 2026-05-01 13:12 | 33.62870 | 134.47866 | 11154 ft | 307 kts | 33° |
| 2026-05-01 13:12 | 33.64485 | 134.49490 | 10500 ft | 298 kts | 32° |
| 2026-05-01 13:13 | 33.66031 | 134.51035 | 10168 ft | 279 kts | 31° |
| 2026-05-01 13:13 | 33.67444 | 134.52462 | 10070 ft | 253 kts | 30° |
| 2026-05-01 13:13 | 33.68726 | 134.53760 | 10065 ft | 229 kts | 29° |
| 2026-05-01 13:13 | 33.69926 | 134.54959 | 10063 ft | 222 kts | 28° |
| 2026-05-01 13:14 | 33.71112 | 134.56132 | 10058 ft | 221 kts | 28° |
| 2026-05-01 13:14 | 33.72277 | 134.57293 | 10057 ft | 212 kts | 28° |
| 2026-05-01 13:14 | 33.73388 | 134.58411 | 10060 ft | 207 kts | 28° |
| 2026-05-01 13:14 | 33.74470 | 134.59491 | 10058 ft | 206 kts | 28° |
| 2026-05-01 13:15 | 33.75609 | 134.60464 | 10053 ft | 198 kts | 17° |
| 2026-05-01 13:15 | 33.76869 | 134.61007 | 10057 ft | 186 kts | 0° |
| 2026-05-01 13:15 | 33.78125 | 134.61032 | 10055 ft | 177 kts | 345° |
| 2026-05-01 13:15 | 33.79283 | 134.60602 | 10062 ft | 173 kts | 330° |
| 2026-05-01 13:16 | 33.80315 | 134.59869 | 10057 ft | 172 kts | 325° |
| 2026-05-01 13:16 | 33.81310 | 134.59069 | 10065 ft | 173 kts | 324° |
| 2026-05-01 13:16 | 33.82304 | 134.58263 | 10054 ft | 172 kts | 324° |
| 2026-05-01 13:17 | 33.85240 | 134.55797 | 10050 ft | 172 kts | 317° |
| 2026-05-01 13:17 | 33.85999 | 134.54679 | 10055 ft | 174 kts | 304° |
| 2026-05-01 13:18 | 33.86835 | 134.51913 | 10047 ft | 178 kts | 292° |
| 2026-05-01 13:18 | 33.87178 | 134.50475 | 10065 ft | 179 kts | 292° |
| 2026-05-01 13:18 | 33.87519 | 134.49038 | 10054 ft | 178 kts | 293° |
| 2026-05-01 13:18 | 33.87872 | 134.47610 | 10042 ft | 178 kts | 293° |
| 2026-05-01 13:19 | 33.88227 | 134.46179 | 10062 ft | 178 kts | 292° |
| 2026-05-01 13:19 | 33.88572 | 134.44751 | 10058 ft | 178 kts | 292° |
| 2026-05-01 13:19 | 33.89263 | 134.41896 | 10053 ft | 177 kts | 294° |
| 2026-05-01 13:20 | 33.90412 | 134.39389 | 10053 ft | 172 kts | 310° |
| 2026-05-01 13:20 | 33.91162 | 134.38263 | 10057 ft | 173 kts | 311° |
| 2026-05-01 13:21 | 33.92688 | 134.36034 | 10061 ft | 173 kts | 311° |
| 2026-05-01 13:21 | 33.93427 | 134.34928 | 10074 ft | 173 kts | 310° |
| 2026-05-01 13:21 | 33.94179 | 134.33795 | 10052 ft | 173 kts | 311° |
| 2026-05-01 13:21 | 33.94937 | 134.32660 | 10054 ft | 174 kts | 311° |
| 2026-05-01 13:22 | 33.95696 | 134.31530 | 10056 ft | 173 kts | 311° |
| 2026-05-01 13:22 | 33.96448 | 134.30408 | 10044 ft | 172 kts | 311° |
| 2026-05-01 13:22 | 33.97223 | 134.29311 | 10053 ft | 171 kts | 315° |
| 2026-05-01 13:22 | 33.98147 | 134.28408 | 10049 ft | 172 kts | 324° |
| 2026-05-01 13:23 | 33.99180 | 134.27672 | 10054 ft | 173 kts | 328° |
| 2026-05-01 13:23 | 34.00227 | 134.26988 | 10059 ft | 173 kts | 329° |
| 2026-05-01 13:23 | 34.01291 | 134.26316 | 10054 ft | 173 kts | 332° |
| 2026-05-01 13:23 | 34.02448 | 134.25892 | 10052 ft | 177 kts | 346° |
| 2026-05-01 13:24 | 34.03698 | 134.25993 | 10049 ft | 188 kts | 6° |
| 2026-05-01 13:24 | 34.04860 | 134.26838 | 10048 ft | 207 kts | 34° |
| 2026-05-01 13:24 | 34.05785 | 134.28220 | 10044 ft | 215 kts | 42° |
| 2026-05-01 13:25 | 34.07495 | 134.31178 | 10040 ft | 217 kts | 43° |
| 2026-05-01 13:25 | 34.08362 | 134.32666 | 10039 ft | 217 kts | 42° |
| 2026-05-01 13:25 | 34.09234 | 134.34146 | 10037 ft | 217 kts | 42° |
| 2026-05-01 13:25 | 34.10110 | 134.35626 | 10038 ft | 217 kts | 42° |
| 2026-05-01 13:26 | 34.10979 | 134.37090 | 10035 ft | 217 kts | 42° |
| 2026-05-01 13:26 | 34.11859 | 134.38571 | 10030 ft | 217 kts | 42° |
| 2026-05-01 13:26 | 34.12763 | 134.40078 | 10035 ft | 233 kts | 43° |
| 2026-05-01 13:26 | 34.13758 | 134.41721 | 10019 ft | 249 kts | 44° |
| 2026-05-01 13:27 | 34.14777 | 134.43439 | 10022 ft | 253 kts | 44° |
| 2026-05-01 13:27 | 34.15794 | 134.45165 | 10021 ft | 252 kts | 44° |
| 2026-05-01 13:27 | 34.17820 | 134.48616 | 9933 ft | 256 kts | 45° |
| 2026-05-01 13:28 | 34.19852 | 134.52063 | 10006 ft | 251 kts | 43° |
| 2026-05-01 13:28 | 34.20874 | 134.53771 | 10034 ft | 251 kts | 44° |
| 2026-05-01 13:29 | 34.22910 | 134.57188 | 10019 ft | 252 kts | 44° |
| 2026-05-01 13:29 | 34.24937 | 134.60611 | 10021 ft | 252 kts | 44° |
| 2026-05-01 13:30 | 34.28965 | 134.67425 | 8908 ft | 248 kts | 44° |
| 2026-05-01 13:31 | 34.30955 | 134.70802 | 8290 ft | 245 kts | 44° |
| 2026-05-01 13:31 | 34.33875 | 134.75753 | 7332 ft | 241 kts | 44° |
| 2026-05-01 13:32 | 34.35807 | 134.79033 | 6676 ft | 238 kts | 44° |
| 2026-05-01 13:33 | 34.38659 | 134.83881 | 5800 ft | 235 kts | 43° |
| 2026-05-01 13:33 | 34.40553 | 134.87145 | 4890 ft | 245 kts | 46° |
| 2026-05-01 13:34 | 34.42518 | 134.90473 | 4087 ft | 236 kts | 44° |
| 2026-05-01 13:34 | 34.44405 | 134.93675 | 4026 ft | 236 kts | 44° |
| 2026-05-01 13:35 | 34.46308 | 134.96914 | 4022 ft | 237 kts | 44° |
| 2026-05-01 13:35 | 34.47264 | 134.98544 | 4017 ft | 237 kts | 44° |
| 2026-05-01 13:35 | 34.49179 | 135.01811 | 4000 ft | 237 kts | 45° |
| 2026-05-01 13:36 | 34.50091 | 135.03384 | 3997 ft | 223 kts | 45° |
| 2026-05-01 13:36 | 34.50950 | 135.04877 | 3996 ft | 209 kts | 44° |
| 2026-05-01 13:36 | 34.52589 | 135.07674 | 3995 ft | 205 kts | 44° |
| 2026-05-01 13:37 | 34.53442 | 135.09124 | 3997 ft | 206 kts | 44° |
| 2026-05-01 13:37 | 34.53993 | 135.10063 | 4002 ft | 207 kts | 44° |
| 2026-05-01 13:37 | 34.55096 | 135.11949 | 3993 ft | 207 kts | 44° |
| 2026-05-01 13:37 | 34.55929 | 135.13375 | 3993 ft | 207 kts | 44° |
| 2026-05-01 13:38 | 34.57710 | 135.16069 | 3997 ft | 203 kts | 38° |
| 2026-05-01 13:38 | 34.58625 | 135.17372 | 3988 ft | 203 kts | 39° |
| 2026-05-01 13:38 | 34.59536 | 135.18682 | 3985 ft | 203 kts | 39° |
| 2026-05-01 13:39 | 34.60365 | 135.20093 | 3990 ft | 212 kts | 54° |
| 2026-05-01 13:39 | 34.60675 | 135.21241 | 3986 ft | 219 kts | 70° |
| 2026-05-01 13:39 | 34.60882 | 135.23725 | 3689 ft | 222 kts | 84° |
| 2026-05-01 13:39 | 34.60822 | 135.25554 | 3595 ft | 212 kts | 89° |
| 2026-05-01 13:40 | 34.60705 | 135.27310 | 3404 ft | 208 kts | 90° |
| 2026-05-01 13:40 | 34.60589 | 135.29058 | 3133 ft | 208 kts | 89° |
| 2026-05-01 13:40 | 34.60525 | 135.30216 | 2977 ft | 207 kts | 89° |
| 2026-05-01 13:40 | 34.60448 | 135.31948 | 2726 ft | 205 kts | 88° |
| 2026-05-01 13:41 | 34.60380 | 135.33674 | 2403 ft | 205 kts | 92° |
| 2026-05-01 13:41 | 34.59984 | 135.35292 | 2206 ft | 194 kts | 121° |
| 2026-05-01 13:41 | 34.59141 | 135.36443 | 2040 ft | 174 kts | 155° |
| 2026-05-01 13:41 | 34.57683 | 135.36921 | 2089 ft | 156 kts | 196° |
| 2026-05-01 13:42 | 34.56656 | 135.36710 | 2096 ft | 150 kts | 206° |
| 2026-05-01 13:42 | 34.55644 | 135.36398 | 2093 ft | 150 kts | 207° |
| 2026-05-01 13:42 | 34.54632 | 135.36080 | 2093 ft | 151 kts | 207° |
| 2026-05-01 13:42 | 34.53616 | 135.35766 | 2093 ft | 151 kts | 207° |
| 2026-05-01 13:43 | 34.52596 | 135.35454 | 2094 ft | 151 kts | 206° |
| 2026-05-01 13:43 | 34.51920 | 135.35249 | 2094 ft | 151 kts | 206° |
| 2026-05-01 13:43 | 34.50899 | 135.34940 | 2085 ft | 152 kts | 205° |
| 2026-05-01 13:43 | 34.49609 | 135.34345 | 2095 ft | 144 kts | 224° |
| 2026-05-01 13:44 | 34.48862 | 135.33610 | 1912 ft | 136 kts | 239° |
| 2026-05-01 13:44 | 34.48286 | 135.32688 | 1466 ft | 142 kts | 240° |
| 2026-05-01 13:44 | 34.47864 | 135.32066 | 1302 ft | 140 kts | 237° |
| 2026-05-01 13:44 | 34.47093 | 135.30924 | 1060 ft | 124 kts | 236° |
| 2026-05-01 13:45 | 34.46744 | 135.30399 | 961 ft | 119 kts | 236° |
| 2026-05-01 13:45 | 34.46233 | 135.29634 | 805 ft | 115 kts | 236° |
| 2026-05-01 13:45 | 34.45732 | 135.28887 | 662 ft | 114 kts | 236° |
| 2026-05-01 13:45 | 34.45233 | 135.28140 | 539 ft | 114 kts | 235° |
| 2026-05-01 13:46 | 34.44731 | 135.27389 | 384 ft | 115 kts | 234° |
| 2026-05-01 13:46 | 34.44224 | 135.26641 | 246 ft | 116 kts | 233° |
| 2026-05-01 13:46 | 34.43567 | 135.25663 | 48 ft | 113 kts | 237° |
| 2026-05-01 13:46 | 34.43248 | 135.25172 | 22 ft | 102 kts | 231° |
| 2026-05-01 13:47 | 34.42954 | 135.24738 | 22 ft | 26 kts | 231° |
| 2026-05-01 13:47 | 34.42904 | 135.24665 | 24 ft | 18 kts | 230° |
| 2026-05-01 13:47 | 34.42825 | 135.24547 | 22 ft | 18 kts | 232° |
| 2026-05-01 13:47 | 34.42762 | 135.24425 | 23 ft | 17 kts | 245° |
| 2026-05-01 13:48 | 34.42729 | 135.24295 | 21 ft | 16 kts | 258° |
| 2026-05-01 13:48 | 34.42720 | 135.24168 | 25 ft | 14 kts | 287° |
| 2026-05-01 13:48 | 34.42769 | 135.24097 | 29 ft | 10 kts | 317° |
| 2026-05-01 13:48 | 34.42828 | 135.24036 | 28 ft | 12 kts | 320° |
| 2026-05-01 13:49 | 34.42905 | 135.24023 | 28 ft | 13 kts | 28° |
| 2026-05-01 13:49 | 34.42960 | 135.24023 | 31 ft | 5 kts | 320° |
| 2026-05-01 13:49 | 34.42994 | 135.23988 | 30 ft | 8 kts | 320° |
| 2026-05-01 13:49 | 34.43004 | 135.23979 | 30 ft | 0 kts | 322° |